Date,TemperatureHighF,TemperatureAvgF,TemperatureLowF,DewpointHighF,DewpointAvgF,DewpointLowF,HumidityHigh,HumidityAvg,HumidityLow,PressureMaxIn,PressureMinIn,WindSpeedMaxMPH,WindSpeedAvgMPH,GustSpeedMaxMPH,PrecipitationSumIn
2013-6-19,87.0,87.0,87.0,70.0,70.0,70.0,56,56,56,0.00,40.00,0,-999,0,0.00
2013-6-25,95.0,95.0,95.0,63.0,63.0,63.0,35,35,35,0.00,40.00,0,-999,0,0.00
2013-7-2,85.0,85.0,85.0,-99.9,-99.9,-99.9,24,24,24,0.00,40.00,0,-999,0,0.00
2013-7-8,87.0,87.0,87.0,68.0,68.0,68.0,53,53,53,0.00,40.00,0,-999,0,0.00
2013-7-19,83.0,83.0,83.0,69.0,69.0,69.0,61,61,61,0.00,40.00,0,-999,0,0.00
2013-7-24,83.0,83.0,83.0,67.0,67.0,67.0,59,59,59,0.00,40.00,0,-999,0,0.00
2013-8-1,101.0,101.0,101.0,62.0,62.0,62.0,27,27,27,0.00,40.00,0,-999,0,0.00
2013-8-12,96.0,90.0,86.0,68.0,64.3,61.0,54,43,30,0.00,40.00,0,-999,0,0.00
2013-8-13,93.0,83.2,77.0,73.0,69.1,67.0,87,63,42,0.00,40.00,0,-999,0,0.00
2013-8-14,85.0,79.0,74.0,73.0,71.3,69.0,92,77,58,0.00,40.00,0,-999,0,0.00
2013-8-15,91.0,80.1,71.0,68.0,61.0,57.0,74,54,33,0.00,40.00,0,-999,0,0.00
2013-8-16,87.0,77.1,70.0,61.0,59.6,58.0,70,56,38,0.00,40.00,0,-999,0,0.00
2013-8-17,88.0,75.0,63.0,60.0,56.6,53.0,87,56,30,0.00,40.00,0,-999,0,0.00
2013-8-18,91.0,79.3,68.0,63.0,57.6,52.0,77,52,27,0.00,40.00,0,-999,0,0.00
2013-8-19,95.0,81.1,71.0,63.0,58.7,51.0,75,50,22,0.00,40.00,0,-999,0,0.00
2013-8-20,91.0,82.5,76.0,62.0,58.0,55.0,56,44,29,0.00,40.00,0,-999,0,0.00
2013-8-21,96.0,86.4,76.0,66.0,61.3,58.0,67,44,30,0.00,40.00,0,-999,0,0.00
2013-8-22,100.0,89.0,75.0,68.0,48.5,-99.9,78,45,26,0.00,40.00,0,-999,0,0.00
2013-8-23,101.0,88.8,76.0,69.0,65.2,61.0,77,48,26,0.00,40.00,0,-999,0,0.00
2013-8-24,97.0,85.9,76.0,68.0,65.5,61.0,72,52,31,0.00,40.00,0,-999,0,0.00
2013-8-25,96.0,86.8,74.0,67.0,63.2,59.0,74,48,31,0.00,40.00,0,-999,0,0.00
2013-8-26,96.0,82.8,74.0,68.0,65.7,59.0,81,58,29,0.00,40.00,0,-999,0,0.00
2013-8-27,94.0,78.8,73.0,70.0,68.2,62.0,89,72,35,0.00,40.00,0,-999,0,0.00
2013-8-28,100.0,95.7,93.0,63.0,24.6,-99.9,36,30,25,0.00,40.00,0,-999,0,0.00
2013-8-29,103.0,88.4,77.0,65.0,61.7,56.0,67,44,22,0.00,40.00,0,-999,0,0.00
2013-8-30,105.0,88.2,75.0,65.0,59.9,55.0,71,42,19,0.00,40.00,0,-999,0,0.00
2013-8-31,104.0,88.2,78.0,69.0,63.8,57.0,73,48,22,0.00,40.00,0,-999,0,0.00
2013-9-1,102.0,87.2,79.0,69.0,65.3,59.0,71,51,24,0.00,40.00,0,-999,0,0.00
2013-9-2,92.0,85.8,78.0,72.0,68.9,67.0,82,58,44,0.00,40.00,0,-999,0,0.00
2013-9-3,99.0,85.8,76.0,71.0,63.9,58.0,73,50,25,0.00,40.00,0,-999,0,0.00
2013-9-4,99.0,86.7,74.0,69.0,64.4,59.0,80,52,26,0.00,40.00,0,-999,0,0.00
2013-9-5,98.0,84.3,76.0,69.0,66.5,59.0,79,58,29,0.00,40.00,0,-999,0,0.00
2013-9-6,98.0,87.4,74.0,67.0,61.8,58.0,74,44,29,0.00,40.00,0,-999,0,0.00
2013-9-7,99.0,83.6,74.0,69.0,64.4,57.0,81,56,25,0.00,40.00,0,-999,0,0.00
2013-9-8,99.0,88.3,71.0,66.0,60.6,56.0,84,44,25,0.00,40.00,0,-999,0,0.00
2013-9-9,96.0,83.3,71.0,67.0,64.7,59.0,83,56,28,0.00,40.00,0,-999,0,0.00
2013-9-10,92.0,80.4,73.0,69.0,64.5,55.0,82,62,31,0.00,40.00,0,-999,0,0.00
2013-9-11,96.0,80.3,73.0,71.0,65.9,62.0,86,64,34,0.00,40.00,0,-999,0,0.00
2013-9-12,84.0,76.8,73.0,70.0,68.7,68.0,84,76,57,0.00,40.00,0,-999,0,0.00
2013-10-8,72.0,72.0,72.0,49.0,49.0,49.0,44,44,44,0.00,40.00,0,-999,0,0.00
2013-10-21,66.0,66.0,66.0,59.0,59.0,59.0,78,78,78,0.00,40.00,0,-999,0,0.00
2013-12-2,60.0,60.0,60.0,50.0,50.0,50.0,70,70,70,0.00,40.00,0,-999,0,0.00
2013-12-11,39.0,39.0,39.0,32.0,32.0,32.0,74,74,74,0.00,40.00,0,-999,0,0.00